createdAt,value
2022-10-12T00:01:17.382Z,15.30
2022-10-12T00:03:45.781Z,15.30
2022-10-12T00:06:17.017Z,15.20
2022-10-12T00:08:46.322Z,15.20
2022-10-12T00:11:18.541Z,15.20
2022-10-12T00:13:48.336Z,15.20
2022-10-12T00:16:18.757Z,15.20
2022-10-12T00:18:52.385Z,15.20
2022-10-12T00:21:21.431Z,15.20
2022-10-12T00:23:51.073Z,15.20
2022-10-12T00:26:22.342Z,15.20
2022-10-12T00:28:57.024Z,15.10
2022-10-12T00:31:26.721Z,15.10
2022-10-12T00:33:55.381Z,15.10
2022-10-12T00:36:26.879Z,15.00
2022-10-12T00:38:57.128Z,15.00
2022-10-12T00:41:27.020Z,15.00
2022-10-12T00:43:58.851Z,15.00
2022-10-12T00:46:34.029Z,14.90
2022-10-12T00:49:11.223Z,14.70
2022-10-12T00:51:42.193Z,14.50
2022-10-12T00:54:12.277Z,14.40
2022-10-12T00:56:45.459Z,14.20
2022-10-12T00:59:20.903Z,14.10
2022-10-12T01:01:49.567Z,14.00
2022-10-12T01:04:18.235Z,13.90
2022-10-12T01:06:46.809Z,13.80
2022-10-12T01:09:15.977Z,13.80
2022-10-12T01:11:44.271Z,13.80
2022-10-12T01:14:14.453Z,13.80
2022-10-12T01:16:52.500Z,13.80
2022-10-12T01:19:57.024Z,13.90
2022-10-12T01:22:26.596Z,13.90
2022-10-12T01:25:09.531Z,14.00
2022-10-12T01:27:47.200Z,14.10
2022-10-12T01:30:23.408Z,14.10
2022-10-12T01:33:04.558Z,14.20
2022-10-12T01:35:43.589Z,14.30
2022-10-12T01:38:27.104Z,14.30
2022-10-12T01:41:00.979Z,14.40
2022-10-12T01:43:36.032Z,14.40
2022-10-12T01:46:29.491Z,14.50
2022-10-12T01:49:00.139Z,14.50
2022-10-12T01:51:36.533Z,14.60
2022-10-12T01:54:13.049Z,14.60
2022-10-12T01:56:48.466Z,14.60
2022-10-12T01:59:22.872Z,14.60
2022-10-12T02:01:59.452Z,14.70
2022-10-12T02:04:36.300Z,14.60
2022-10-12T02:07:10.765Z,14.60
2022-10-12T02:09:40.576Z,14.60
2022-10-12T02:12:13.645Z,14.50
2022-10-12T02:14:46.118Z,14.60
2022-10-12T02:17:20.200Z,14.60
2022-10-12T02:19:52.759Z,14.60
2022-10-12T02:22:22.002Z,14.60
2022-10-12T02:24:54.309Z,14.60
2022-10-12T02:27:25.425Z,14.70
2022-10-12T02:29:54.826Z,14.70
2022-10-12T02:32:31.152Z,14.80
2022-10-12T02:35:06.400Z,14.70
2022-10-12T02:37:40.103Z,14.60
2022-10-12T02:40:14.260Z,14.60
2022-10-12T02:43:09.263Z,14.50
2022-10-12T02:45:39.650Z,14.40
2022-10-12T02:48:12.733Z,14.30
2022-10-12T02:50:41.683Z,14.30
2022-10-12T02:53:10.456Z,14.20
2022-10-12T02:55:39.984Z,14.20
2022-10-12T02:58:08.547Z,14.10
2022-10-12T03:00:37.319Z,14.00
2022-10-12T03:03:05.585Z,14.00
2022-10-12T03:05:35.784Z,14.00
2022-10-12T03:08:04.147Z,14.00
2022-10-12T03:10:32.609Z,14.00
2022-10-12T03:13:01.003Z,14.00
2022-10-12T03:15:30.114Z,14.00
2022-10-12T03:22:20.124Z,14.10
2022-10-12T03:24:48.582Z,14.20
2022-10-12T03:27:17.377Z,14.20
2022-10-12T03:29:45.680Z,14.20
2022-10-12T03:32:16.224Z,14.20
2022-10-12T03:34:44.545Z,14.20
2022-10-12T03:37:13.117Z,14.20
2022-10-12T03:39:42.833Z,14.20
2022-10-12T03:42:11.666Z,14.30
2022-10-12T03:44:39.852Z,14.30
2022-10-12T03:47:08.434Z,14.40
2022-10-12T03:49:36.938Z,14.40
2022-10-12T03:52:05.684Z,14.40
2022-10-12T03:54:34.505Z,14.50
2022-10-12T03:57:04.152Z,14.50
2022-10-12T03:59:32.938Z,14.50
2022-10-12T04:02:02.055Z,14.50
2022-10-12T04:04:31.993Z,14.40
2022-10-12T04:07:03.945Z,14.40
2022-10-12T04:09:33.101Z,14.30
2022-10-12T04:12:01.581Z,14.30
2022-10-12T04:14:31.708Z,14.20
2022-10-12T04:17:00.109Z,14.30
2022-10-12T04:19:28.680Z,14.30
2022-10-12T04:21:57.447Z,14.40
2022-10-12T04:24:25.837Z,14.40
2022-10-12T04:26:54.229Z,14.50
2022-10-12T04:29:22.841Z,14.50
2022-10-12T04:31:52.825Z,14.50
2022-10-12T04:34:21.785Z,14.60
2022-10-12T04:36:50.820Z,14.60
2022-10-12T04:39:19.261Z,14.60
2022-10-12T04:41:47.530Z,14.60
2022-10-12T04:44:16.036Z,14.60
2022-10-12T04:46:44.261Z,14.60
2022-10-12T04:49:14.489Z,14.60
2022-10-12T04:51:42.864Z,14.60
2022-10-12T04:54:11.710Z,14.60
2022-10-12T04:56:42.128Z,14.70
2022-10-12T04:59:14.004Z,14.60
2022-10-12T05:01:42.356Z,14.60
2022-10-12T05:04:11.108Z,14.60
2022-10-12T05:06:40.753Z,14.70
2022-10-12T05:09:13.187Z,14.70
2022-10-12T05:11:44.653Z,14.70
2022-10-12T05:14:13.564Z,14.70
2022-10-12T05:16:41.891Z,14.70
2022-10-12T05:19:10.730Z,14.70
2022-10-12T05:21:40.749Z,14.70
2022-10-12T05:24:09.491Z,14.70
2022-10-12T05:26:37.945Z,14.70
2022-10-12T05:29:06.349Z,14.70
2022-10-12T05:31:35.016Z,14.70
2022-10-12T05:34:03.336Z,14.70
2022-10-12T05:36:32.228Z,14.60
2022-10-12T05:39:01.869Z,14.60
2022-10-12T05:41:30.669Z,14.70
2022-10-12T05:43:58.947Z,14.60
2022-10-12T05:46:27.598Z,14.60
2022-10-12T05:48:55.876Z,14.60
2022-10-12T05:51:28.780Z,14.70
2022-10-12T05:53:57.567Z,14.60
2022-10-12T05:56:27.754Z,14.60
2022-10-12T05:58:56.030Z,14.70
2022-10-12T06:01:24.981Z,14.70
2022-10-12T06:03:54.782Z,14.70
2022-10-12T06:06:24.046Z,14.70
2022-10-12T06:08:52.356Z,14.80
2022-10-12T06:11:21.602Z,14.80
2022-10-12T06:13:51.318Z,14.80
2022-10-12T06:16:19.773Z,14.70
2022-10-12T06:18:48.037Z,14.70
2022-10-12T06:24:05.217Z,14.60
2022-10-12T06:26:33.508Z,14.60
2022-10-12T06:29:03.406Z,14.50
2022-10-12T06:31:32.484Z,14.50
2022-10-12T06:34:01.415Z,14.60
2022-10-12T06:36:29.676Z,14.60
2022-10-12T06:38:58.369Z,14.60
2022-10-12T06:41:26.649Z,14.70
2022-10-12T06:43:55.389Z,14.70
2022-10-12T06:46:25.032Z,14.70
2022-10-12T06:48:55.078Z,14.80
2022-10-12T06:51:23.531Z,14.80
2022-10-12T06:53:52.034Z,14.70
2022-10-12T06:56:20.291Z,14.70
2022-10-12T06:58:48.864Z,14.80
2022-10-12T07:01:17.457Z,14.80
2022-10-12T07:03:47.161Z,14.80
2022-10-12T07:06:15.981Z,14.80
2022-10-12T07:08:44.827Z,14.80
2022-10-12T07:11:15.151Z,14.80
2022-10-12T07:13:43.683Z,14.80
2022-10-12T07:16:12.218Z,14.80
2022-10-12T07:18:41.337Z,14.80
2022-10-12T07:21:11.081Z,14.80
2022-10-12T07:23:45.715Z,14.80
2022-10-12T07:26:15.160Z,14.80
2022-10-12T07:28:43.994Z,14.80
2022-10-12T07:31:12.560Z,14.80
2022-10-12T07:33:41.162Z,14.80
2022-10-12T07:36:19.163Z,14.90
2022-10-12T07:38:49.689Z,14.90
2022-10-12T07:41:18.454Z,14.90
2022-10-12T07:43:47.145Z,14.90
2022-10-12T07:46:15.565Z,14.90
2022-10-12T07:48:49.816Z,15.00
2022-10-12T07:51:20.249Z,15.00
2022-10-12T07:53:48.487Z,15.00
2022-10-12T07:56:17.853Z,15.00
2022-10-12T07:58:50.831Z,15.00
2022-10-12T08:01:21.790Z,15.00
2022-10-12T08:03:51.144Z,15.00
2022-10-12T08:06:23.875Z,15.00
2022-10-12T08:08:52.309Z,15.00
2022-10-12T08:11:22.005Z,15.00
2022-10-12T08:13:50.326Z,14.90
2022-10-12T08:16:21.511Z,14.90
2022-10-12T08:18:50.189Z,14.90
2022-10-12T08:21:20.524Z,14.90
2022-10-12T08:23:48.838Z,15.00
2022-10-12T08:26:17.231Z,15.00
2022-10-12T08:28:46.036Z,15.00
2022-10-12T08:31:16.419Z,15.00
2022-10-12T08:33:45.099Z,15.00
2022-10-12T08:36:14.058Z,15.00
2022-10-12T08:38:45.419Z,14.90
2022-10-12T08:41:29.899Z,14.90
2022-10-12T08:44:10.476Z,14.90
2022-10-12T08:46:39.436Z,14.90
2022-10-12T08:49:14.117Z,15.00
2022-10-12T08:51:49.904Z,15.00
2022-10-12T08:54:23.832Z,15.00
2022-10-12T08:56:55.054Z,15.10
2022-10-12T08:59:23.864Z,15.10
2022-10-12T09:02:03.035Z,15.10
2022-10-12T09:04:47.300Z,15.20
2022-10-12T09:07:19.907Z,15.20
2022-10-12T09:10:03.633Z,15.20
2022-10-12T09:12:45.242Z,15.20
2022-10-12T09:15:17.157Z,15.30
2022-10-12T09:17:48.576Z,15.30
2022-10-12T09:20:22.218Z,15.30
2022-10-12T09:22:52.765Z,15.30
2022-10-12T09:25:24.497Z,15.30
2022-10-12T09:27:53.438Z,15.30
2022-10-12T09:30:22.112Z,15.30
2022-10-12T09:33:06.056Z,15.30
2022-10-12T09:35:34.841Z,15.30
2022-10-12T09:38:03.644Z,15.30
2022-10-12T09:40:33.986Z,15.20
2022-10-12T09:43:04.201Z,15.20
2022-10-12T09:45:35.884Z,15.10
2022-10-12T09:48:21.226Z,15.10
2022-10-12T09:50:52.991Z,15.10
2022-10-12T09:53:28.334Z,15.10
2022-10-12T09:56:05.108Z,15.00
2022-10-12T09:58:41.141Z,15.00
2022-10-12T10:01:19.576Z,15.10
2022-10-12T10:03:51.899Z,15.20
2022-10-12T10:06:26.550Z,15.30
2022-10-12T10:08:56.581Z,15.30
2022-10-12T10:11:30.944Z,15.40
2022-10-12T10:14:01.006Z,15.30
2022-10-12T10:16:31.472Z,15.30
2022-10-12T10:19:02.981Z,15.40
2022-10-12T10:21:34.627Z,15.40
2022-10-12T10:24:05.633Z,15.40
2022-10-12T10:26:54.616Z,15.50
2022-10-12T10:29:40.740Z,15.50
2022-10-12T10:32:26.755Z,15.60
2022-10-12T10:35:07.251Z,15.60
2022-10-12T10:37:36.857Z,15.60
2022-10-12T10:40:06.924Z,15.70
2022-10-12T10:42:38.065Z,15.70
2022-10-12T10:45:09.610Z,15.70
2022-10-12T10:47:46.489Z,15.70
2022-10-12T10:50:26.961Z,15.80
2022-10-12T10:52:58.019Z,15.80
2022-10-12T10:55:32.484Z,15.90
2022-10-12T10:58:05.128Z,16.00
2022-10-12T11:00:39.756Z,16.00
2022-10-12T11:03:17.267Z,16.10
2022-10-12T11:05:50.678Z,16.20
2022-10-12T11:08:23.389Z,16.30
2022-10-12T11:10:59.368Z,16.30
2022-10-12T11:13:33.347Z,16.40
2022-10-12T11:16:05.790Z,16.40
2022-10-12T11:18:40.295Z,16.50
2022-10-12T11:21:13.651Z,16.50
2022-10-12T11:23:46.888Z,16.60
2022-10-12T11:26:23.926Z,16.60
2022-10-12T11:28:55.952Z,16.60
2022-10-12T11:31:27.686Z,16.60
2022-10-12T11:34:00.627Z,16.60
2022-10-12T11:36:32.115Z,16.60
2022-10-12T11:39:06.846Z,16.60
2022-10-12T11:42:03.067Z,16.60
2022-10-12T11:44:42.180Z,16.60
2022-10-12T11:47:16.786Z,16.70
2022-10-12T11:49:52.401Z,16.70
2022-10-12T11:52:26.313Z,16.70
2022-10-12T11:55:06.167Z,16.70
2022-10-12T11:57:38.682Z,16.80
2022-10-12T12:00:19.549Z,16.70
2022-10-12T12:02:53.436Z,16.80
2022-10-12T12:05:22.281Z,16.80
2022-10-12T12:07:53.860Z,16.90
2022-10-12T12:10:46.523Z,16.90
2022-10-12T12:13:33.345Z,16.90
2022-10-12T12:16:27.542Z,16.90
2022-10-12T12:19:16.410Z,16.90
2022-10-12T12:22:17.040Z,16.90
2022-10-12T12:24:58.861Z,16.80
2022-10-12T12:27:37.449Z,16.80
2022-10-12T12:30:21.560Z,16.90
2022-10-12T12:32:53.743Z,16.90
2022-10-12T12:35:27.915Z,16.90
2022-10-12T12:38:09.444Z,16.90
2022-10-12T12:40:39.110Z,16.90
2022-10-12T12:43:21.314Z,16.80
2022-10-12T12:45:58.801Z,16.80
2022-10-12T12:49:25.144Z,16.70
2022-10-12T12:51:59.205Z,16.60
2022-10-12T12:54:28.909Z,16.60
2022-10-12T12:57:29.476Z,16.60
2022-10-12T13:00:21.343Z,16.50
2022-10-12T13:03:29.312Z,16.50
2022-10-12T13:06:39.158Z,16.50
2022-10-12T13:09:41.080Z,16.50
2022-10-12T13:12:34.582Z,16.50
2022-10-12T13:15:22.293Z,16.50
2022-10-12T13:18:45.286Z,16.50
2022-10-12T13:21:16.927Z,16.40
2022-10-12T13:23:50.261Z,16.40
2022-10-12T13:26:23.653Z,16.40
2022-10-12T13:28:53.349Z,16.50
2022-10-12T13:31:27.290Z,16.40
2022-10-12T13:34:02.455Z,16.40
2022-10-12T13:36:33.462Z,16.40
2022-10-12T13:39:16.057Z,16.40
2022-10-12T13:41:46.237Z,16.40
2022-10-12T13:44:23.893Z,16.40
2022-10-12T13:46:56.481Z,16.40
2022-10-12T13:49:26.998Z,16.40
2022-10-12T13:51:58.129Z,16.40
2022-10-12T13:54:28.340Z,16.40
2022-10-12T13:57:01.047Z,16.40
2022-10-12T13:59:34.391Z,16.30
2022-10-12T14:02:04.305Z,16.40
2022-10-12T14:04:35.142Z,16.40
2022-10-12T14:07:07.779Z,16.40
2022-10-12T14:09:44.602Z,16.40
2022-10-12T14:12:14.635Z,16.30
2022-10-12T14:14:46.208Z,16.30
2022-10-12T14:17:16.685Z,16.30
2022-10-12T14:19:47.956Z,16.20
2022-10-12T14:22:24.292Z,16.20
2022-10-12T14:25:11.180Z,16.20
2022-10-12T14:27:41.486Z,16.20
2022-10-12T14:30:21.313Z,16.20
2022-10-12T14:32:55.032Z,16.20
2022-10-12T14:35:30.347Z,16.20
2022-10-12T14:37:59.607Z,16.20
2022-10-12T14:40:38.519Z,16.20
2022-10-12T14:43:21.327Z,16.20
2022-10-12T14:45:50.932Z,16.30
2022-10-12T14:48:23.752Z,16.30
2022-10-12T14:50:52.588Z,16.40
2022-10-12T14:53:22.439Z,16.40
2022-10-12T14:55:54.614Z,16.40
2022-10-12T14:58:23.415Z,16.30
2022-10-12T15:00:52.026Z,16.30
2022-10-12T15:03:20.420Z,16.30
2022-10-12T15:05:49.329Z,16.20
2022-10-12T15:08:17.605Z,16.20
2022-10-12T15:10:50.831Z,16.20
2022-10-12T15:13:20.477Z,16.20
2022-10-12T15:15:50.718Z,16.20
2022-10-12T15:18:19.065Z,16.20
2022-10-12T15:20:49.712Z,16.10
2022-10-12T15:23:18.554Z,16.20
2022-10-12T15:25:51.820Z,16.10
2022-10-12T15:28:21.888Z,16.10
2022-10-12T15:33:40.020Z,16.00
2022-10-12T15:36:08.738Z,16.00
2022-10-12T15:38:37.623Z,16.00
2022-10-12T15:41:06.588Z,16.00
2022-10-12T15:43:38.248Z,15.90
2022-10-12T15:46:12.126Z,15.90
2022-10-12T15:48:40.681Z,15.90
2022-10-12T15:51:17.988Z,15.80
2022-10-12T15:53:46.952Z,15.80
2022-10-12T15:56:17.161Z,15.70
2022-10-12T15:58:47.286Z,15.70
2022-10-12T16:01:17.708Z,15.60
2022-10-12T16:03:46.419Z,15.60
2022-10-12T16:06:15.229Z,15.50
2022-10-12T16:08:44.435Z,15.50
2022-10-12T16:11:15.359Z,15.40
2022-10-12T16:13:51.068Z,15.40
2022-10-12T16:16:23.919Z,15.40
2022-10-12T16:18:54.238Z,15.40
2022-10-12T16:21:22.735Z,15.40
2022-10-12T16:23:51.332Z,15.30
2022-10-12T16:26:19.816Z,15.30
2022-10-12T16:28:48.783Z,15.30
2022-10-12T16:31:18.264Z,15.20
2022-10-12T16:33:48.367Z,15.20
2022-10-12T16:36:17.822Z,15.20
2022-10-12T16:38:46.903Z,15.20
2022-10-12T16:41:17.284Z,15.20
2022-10-12T16:43:45.708Z,15.20
2022-10-12T16:46:16.363Z,15.10
2022-10-12T16:48:45.027Z,15.10
2022-10-12T16:51:15.647Z,15.10
2022-10-12T16:53:43.895Z,15.10
2022-10-12T16:56:12.851Z,15.10
2022-10-12T16:58:41.327Z,15.10
2022-10-12T17:01:13.361Z,15.10
2022-10-12T17:03:43.309Z,15.10
2022-10-12T17:06:13.993Z,15.10
2022-10-12T17:08:42.557Z,15.10
2022-10-12T17:11:13.456Z,15.20
2022-10-12T17:13:48.093Z,15.10
2022-10-12T17:16:36.250Z,15.20
2022-10-12T17:19:05.066Z,15.10
2022-10-12T17:21:35.006Z,15.10
2022-10-12T17:24:03.918Z,15.10
2022-10-12T17:26:32.175Z,15.10
2022-10-12T17:29:00.438Z,15.10
2022-10-12T17:31:28.675Z,15.20
2022-10-12T17:33:58.498Z,15.20
2022-10-12T17:36:28.543Z,15.20
2022-10-12T17:39:00.353Z,15.20
2022-10-12T17:41:29.898Z,15.20
2022-10-12T17:43:58.778Z,15.30
2022-10-12T17:46:28.065Z,15.30
2022-10-12T17:48:57.008Z,15.30
2022-10-12T17:51:25.463Z,15.30
2022-10-12T17:53:53.825Z,15.30
2022-10-12T17:56:24.032Z,15.30
2022-10-12T17:58:55.421Z,15.30
2022-10-12T18:01:24.607Z,15.20
2022-10-12T18:03:55.377Z,15.30
2022-10-12T18:06:25.641Z,15.30
2022-10-12T18:08:55.067Z,15.30
2022-10-12T18:11:25.776Z,15.40
2022-10-12T18:13:56.773Z,15.40
2022-10-12T18:16:27.643Z,15.40
2022-10-12T18:18:56.272Z,15.40
2022-10-12T18:21:26.584Z,15.40
2022-10-12T18:23:55.118Z,15.40
2022-10-12T18:26:28.011Z,15.40
2022-10-12T18:28:56.592Z,15.40
2022-10-12T18:31:26.975Z,15.40
2022-10-12T18:33:56.416Z,15.40
2022-10-12T18:36:24.790Z,15.40
2022-10-12T18:38:53.317Z,15.40
2022-10-12T18:41:23.481Z,15.40
2022-10-12T18:43:57.836Z,15.30
2022-10-12T18:46:27.829Z,15.40
2022-10-12T18:48:56.620Z,15.40
2022-10-12T18:51:27.449Z,15.40
2022-10-12T18:53:56.485Z,15.30
2022-10-12T18:56:25.698Z,15.30
2022-10-12T18:58:56.108Z,15.30
2022-10-12T19:01:26.073Z,15.30
2022-10-12T19:03:56.415Z,15.30
2022-10-12T19:06:27.398Z,15.20
2022-10-12T19:08:57.522Z,15.00
2022-10-12T19:11:27.208Z,14.90
2022-10-12T19:13:59.118Z,14.90
2022-10-12T19:16:28.011Z,14.80
2022-10-12T19:18:57.835Z,14.90
2022-10-12T19:21:26.678Z,14.90
2022-10-12T19:23:56.066Z,14.90
2022-10-12T19:26:28.299Z,14.90
2022-10-12T19:28:58.807Z,15.00
2022-10-12T19:31:29.131Z,15.00
2022-10-12T19:33:58.019Z,15.00
2022-10-12T19:36:27.698Z,15.00
2022-10-12T19:38:56.444Z,14.90
2022-10-12T19:41:25.689Z,14.80
2022-10-12T19:43:54.753Z,14.60
2022-10-12T19:46:24.956Z,14.60
2022-10-12T19:48:54.989Z,14.50
2022-10-12T19:51:25.402Z,14.50
2022-10-12T19:53:54.438Z,14.40
2022-10-12T19:56:23.217Z,14.50
2022-10-12T19:58:53.191Z,14.50
2022-10-12T20:01:25.610Z,14.50
2022-10-12T20:03:55.362Z,14.40
2022-10-12T20:06:25.833Z,14.30
2022-10-12T20:08:55.510Z,14.20
2022-10-12T20:11:25.131Z,14.10
2022-10-12T20:13:54.656Z,13.90
2022-10-12T20:16:24.582Z,13.80
2022-10-12T20:18:53.939Z,13.80
2022-10-12T20:21:23.788Z,13.70
2022-10-12T20:23:53.392Z,13.80
2022-10-12T20:26:23.288Z,13.80
2022-10-12T20:28:53.272Z,13.90
2022-10-12T20:31:23.530Z,14.00
2022-10-12T20:33:54.109Z,14.00
2022-10-12T20:36:25.412Z,14.10
2022-10-12T20:38:54.273Z,14.10
2022-10-12T20:41:23.687Z,14.10
2022-10-12T20:43:55.856Z,14.10
2022-10-12T20:46:24.725Z,14.10
2022-10-12T20:48:58.951Z,14.10
2022-10-12T20:51:29.900Z,14.20
2022-10-12T20:54:01.203Z,14.20
2022-10-12T20:56:29.715Z,14.20
2022-10-12T20:58:58.972Z,14.20
2022-10-12T21:01:28.301Z,14.20
2022-10-12T21:03:58.548Z,14.30
2022-10-12T21:06:26.900Z,14.20
2022-10-12T21:08:56.559Z,14.20
2022-10-12T21:11:25.711Z,14.20
2022-10-12T21:13:54.148Z,14.20
2022-10-12T21:16:22.455Z,14.30
2022-10-12T21:18:54.488Z,14.30
2022-10-12T21:21:25.217Z,14.20
2022-10-12T21:23:55.637Z,14.20
2022-10-12T21:26:25.471Z,14.00
2022-10-12T21:28:53.907Z,13.70
2022-10-12T21:31:23.428Z,13.60
2022-10-12T21:33:53.699Z,13.50
2022-10-12T21:36:26.364Z,13.30
2022-10-12T21:38:54.917Z,13.20
2022-10-12T21:41:24.586Z,13.20
2022-10-12T21:43:54.489Z,13.20
2022-10-12T21:46:24.557Z,13.30
2022-10-12T21:48:53.676Z,13.40
2022-10-12T21:51:24.955Z,13.50
2022-10-12T21:53:54.060Z,13.50
2022-10-12T21:56:24.263Z,13.60
2022-10-12T21:58:54.767Z,13.60
2022-10-12T22:01:23.710Z,13.60
2022-10-12T22:03:54.910Z,13.70
2022-10-12T22:06:26.757Z,13.70
2022-10-12T22:08:57.147Z,13.80
2022-10-12T22:11:27.163Z,13.80
2022-10-12T22:13:59.682Z,13.80
2022-10-12T22:16:29.451Z,13.80
2022-10-12T22:18:59.246Z,13.60
2022-10-12T22:21:36.216Z,13.30
2022-10-12T22:24:06.029Z,13.30
2022-10-12T22:26:35.199Z,13.30
2022-10-12T22:29:07.388Z,13.10
2022-10-12T22:31:36.744Z,12.90
2022-10-12T22:34:05.461Z,12.70
2022-10-12T22:36:39.690Z,12.60
2022-10-12T22:39:09.665Z,12.70
2022-10-12T22:41:38.725Z,12.70
2022-10-12T22:44:07.620Z,12.80
2022-10-12T22:46:35.922Z,12.80
2022-10-12T22:49:04.857Z,12.60
2022-10-12T22:51:35.016Z,12.40
2022-10-12T22:54:05.449Z,12.30
2022-10-12T22:56:34.004Z,12.30
2022-10-12T22:59:06.701Z,12.40
2022-10-12T23:01:36.762Z,12.30
2022-10-12T23:04:05.808Z,12.00
2022-10-12T23:06:34.156Z,11.90
2022-10-12T23:09:04.710Z,11.80
2022-10-12T23:11:33.042Z,11.80
2022-10-12T23:14:01.771Z,11.90
2022-10-12T23:16:32.883Z,11.90
2022-10-12T23:19:02.470Z,11.80
2022-10-12T23:21:32.615Z,11.60
2022-10-12T23:24:02.017Z,11.50
2022-10-12T23:26:31.959Z,11.30
2022-10-12T23:29:00.716Z,11.20
2022-10-12T23:31:32.612Z,11.20
2022-10-12T23:34:03.511Z,11.10
2022-10-12T23:36:33.451Z,11.10
2022-10-12T23:39:03.765Z,11.10
2022-10-12T23:41:33.896Z,11.10
2022-10-12T23:44:02.151Z,11.00
2022-10-12T23:46:30.848Z,10.80
2022-10-12T23:49:00.486Z,10.60
2022-10-12T23:51:29.120Z,10.40
2022-10-12T23:53:57.315Z,10.10
2022-10-12T23:56:25.637Z,10.10
2022-10-12T23:58:56.053Z,10.00
